sensor_id;sensor_type;location;lat;lon;timestamp;pressure;altitude;pressure_sealevel;temperature;humidity
72423;BME280;71399;54.146;38.734;2023-08-20T00:00:39;98577.47;;;19.31;100.00
72423;BME280;71399;54.146;38.734;2023-08-20T00:03:10;98608.25;;;19.29;100.00
72423;BME280;71399;54.146;38.734;2023-08-20T00:05:37;98644.72;;;19.33;100.00
72423;BME280;71399;54.146;38.734;2023-08-20T00:08:03;98605.16;;;19.44;100.00
72423;BME280;71399;54.146;38.734;2023-08-20T00:10:30;98548.56;;;19.51;100.00
72423;BME280;71399;54.146;38.734;2023-08-20T00:12:56;98518.41;;;19.59;100.00
72423;BME280;71399;54.146;38.734;2023-08-20T00:15:22;98514.03;;;19.63;100.00
72423;BME280;71399;54.146;38.734;2023-08-20T00:17:52;98470.94;;;19.65;100.00
72423;BME280;71399;54.146;38.734;2023-08-20T00:20:18;98463.53;;;19.70;100.00
72423;BME280;71399;54.146;38.734;2023-08-20T00:22:45;98436.19;;;19.73;100.00
72423;BME280;71399;54.146;38.734;2023-08-20T00:25:12;98420.00;;;19.78;100.00
72423;BME280;71399;54.146;38.734;2023-08-20T00:27:39;98423.63;;;19.83;100.00
72423;BME280;71399;54.146;38.734;2023-08-20T00:30:05;98432.75;;;19.82;100.00
72423;BME280;71399;54.146;38.734;2023-08-20T00:32:32;98418.91;;;19.79;100.00
72423;BME280;71399;54.146;38.734;2023-08-20T00:34:58;98402.84;;;19.79;100.00
72423;BME280;71399;54.146;38.734;2023-08-20T00:37:24;98420.16;;;19.82;100.00
72423;BME280;71399;54.146;38.734;2023-08-20T00:39:50;98399.22;;;19.84;100.00
72423;BME280;71399;54.146;38.734;2023-08-20T00:42:17;98389.81;;;19.87;100.00
72423;BME280;71399;54.146;38.734;2023-08-20T00:44:44;98403.94;;;19.87;100.00
72423;BME280;71399;54.146;38.734;2023-08-20T00:47:10;98411.38;;;19.82;100.00
72423;BME280;71399;54.146;38.734;2023-08-20T00:49:38;98398.16;;;19.76;100.00
72423;BME280;71399;54.146;38.734;2023-08-20T00:52:05;98412.91;;;19.74;100.00
72423;BME280;71399;54.146;38.734;2023-08-20T00:54:34;98409.75;;;19.72;100.00
72423;BME280;71399;54.146;38.734;2023-08-20T00:57:00;98410.84;;;19.71;100.00
72423;BME280;71399;54.146;38.734;2023-08-20T00:59:28;98414.81;;;19.65;100.00
72423;BME280;71399;54.146;38.734;2023-08-20T01:01:54;98428.66;;;19.58;100.00
72423;BME280;71399;54.146;38.734;2023-08-20T01:04:20;98444.19;;;19.56;100.00
72423;BME280;71399;54.146;38.734;2023-08-20T01:11:45;98424.56;;;19.52;100.00
72423;BME280;71399;54.146;38.734;2023-08-20T01:14:15;98426.59;;;19.55;100.00
72423;BME280;71399;54.146;38.734;2023-08-20T01:16:42;98443.88;;;19.49;100.00
72423;BME280;71399;54.146;38.734;2023-08-20T01:19:10;98443.88;;;19.49;100.00
72423;BME280;71399;54.146;38.734;2023-08-20T01:21:43;98446.56;;;19.49;100.00
72423;BME280;71399;54.146;38.734;2023-08-20T01:29:29;98446.41;;;19.45;100.00
72423;BME280;71399;54.146;38.734;2023-08-20T01:31:55;98458.47;;;19.42;100.00
72423;BME280;71399;54.146;38.734;2023-08-20T01:34:22;98450.00;;;19.40;100.00
72423;BME280;71399;54.146;38.734;2023-08-20T01:36:48;98447.31;;;19.40;100.00
72423;BME280;71399;54.146;38.734;2023-08-20T01:39:14;98442.59;;;19.37;100.00
72423;BME280;71399;54.146;38.734;2023-08-20T01:41:41;98447.78;;;19.34;100.00
72423;BME280;71399;54.146;38.734;2023-08-20T01:44:07;98450.31;;;19.30;100.00
72423;BME280;71399;54.146;38.734;2023-08-20T01:46:33;98445.13;;;19.25;100.00
72423;BME280;71399;54.146;38.734;2023-08-20T01:48:59;98456.56;;;19.17;100.00
72423;BME280;71399;54.146;38.734;2023-08-20T01:51:25;98462.97;;;19.07;100.00
72423;BME280;71399;54.146;38.734;2023-08-20T01:53:51;98463.91;;;19.02;100.00
72423;BME280;71399;54.146;38.734;2023-08-20T01:56:18;98467.69;;;19.01;100.00
72423;BME280;71399;54.146;38.734;2023-08-20T01:58:45;98462.50;;;18.96;100.00
72423;BME280;71399;54.146;38.734;2023-08-20T02:01:11;98463.56;;;18.95;100.00
72423;BME280;71399;54.146;38.734;2023-08-20T02:03:37;98470.66;;;18.91;100.00
72423;BME280;71399;54.146;38.734;2023-08-20T02:06:05;98476.91;;;18.86;100.00
72423;BME280;71399;54.146;38.734;2023-08-20T02:08:31;98479.97;;;18.80;100.00
72423;BME280;71399;54.146;38.734;2023-08-20T02:11:03;98494.56;;;18.74;100.00
72423;BME280;71399;54.146;38.734;2023-08-20T02:13:32;98495.63;;;18.73;100.00
72423;BME280;71399;54.146;38.734;2023-08-20T02:15:59;98503.84;;;18.76;100.00
72423;BME280;71399;54.146;38.734;2023-08-20T02:18:47;98495.19;;;18.79;100.00
72423;BME280;71399;54.146;38.734;2023-08-20T02:21:13;98488.78;;;18.80;100.00
72423;BME280;71399;54.146;38.734;2023-08-20T02:23:39;98485.31;;;18.80;100.00
72423;BME280;71399;54.146;38.734;2023-08-20T02:26:06;98493.94;;;18.77;100.00
72423;BME280;71399;54.146;38.734;2023-08-20T02:28:33;98503.66;;;18.73;100.00
72423;BME280;71399;54.146;38.734;2023-08-20T02:30:59;98509.63;;;18.69;100.00
72423;BME280;71399;54.146;38.734;2023-08-20T02:33:29;98511.47;;;18.69;100.00
72423;BME280;71399;54.146;38.734;2023-08-20T02:35:55;98507.44;;;18.72;100.00
72423;BME280;71399;54.146;38.734;2023-08-20T02:38:21;98511.66;;;18.73;100.00
72423;BME280;71399;54.146;38.734;2023-08-20T02:40:48;98528.34;;;18.78;100.00
72423;BME280;71399;54.146;38.734;2023-08-20T02:43:14;98530.13;;;18.83;100.00
72423;BME280;71399;54.146;38.734;2023-08-20T02:45:41;98528.41;;;18.87;100.00
72423;BME280;71399;54.146;38.734;2023-08-20T02:48:07;98535.03;;;18.90;100.00
72423;BME280;71399;54.146;38.734;2023-08-20T02:50:34;98536.13;;;18.88;100.00
72423;BME280;71399;54.146;38.734;2023-08-20T02:53:00;98529.50;;;18.86;100.00
72423;BME280;71399;54.146;38.734;2023-08-20T02:55:26;98531.97;;;18.82;100.00
72423;BME280;71399;54.146;38.734;2023-08-20T02:57:52;98550.06;;;18.85;100.00
72423;BME280;71399;54.146;38.734;2023-08-20T03:00:18;98547.09;;;18.87;100.00
72423;BME280;71399;54.146;38.734;2023-08-20T03:02:43;98546.78;;;18.88;100.00
72423;BME280;71399;54.146;38.734;2023-08-20T03:05:09;98541.44;;;18.88;100.00
72423;BME280;71399;54.146;38.734;2023-08-20T03:07:35;98553.22;;;18.87;100.00
72423;BME280;71399;54.146;38.734;2023-08-20T03:10:01;98550.25;;;18.89;100.00
72423;BME280;71399;54.146;38.734;2023-08-20T03:12:29;98555.13;;;18.96;100.00
72423;BME280;71399;54.146;38.734;2023-08-20T03:14:55;98549.53;;;19.06;100.00
72423;BME280;71399;54.146;38.734;2023-08-20T03:17:21;98542.81;;;19.17;100.00
72423;BME280;71399;54.146;38.734;2023-08-20T03:19:57;98530.75;;;19.29;100.00
72423;BME280;71399;54.146;38.734;2023-08-20T03:22:24;98516.34;;;19.38;100.00
72423;BME280;71399;54.146;38.734;2023-08-20T03:24:51;98520.91;;;19.47;100.00
72423;BME280;71399;54.146;38.734;2023-08-20T03:27:17;98515.41;;;19.52;100.00
72423;BME280;71399;54.146;38.734;2023-08-20T03:29:43;98516.66;;;19.54;100.00
72423;BME280;71399;54.146;38.734;2023-08-20T03:32:10;98521.09;;;19.59;100.00
72423;BME280;71399;54.146;38.734;2023-08-20T03:34:37;98515.41;;;19.60;100.00
72423;BME280;71399;54.146;38.734;2023-08-20T03:37:03;98511.03;;;19.65;100.00
72423;BME280;71399;54.146;38.734;2023-08-20T03:39:30;98494.03;;;19.69;100.00
72423;BME280;71399;54.146;38.734;2023-08-20T03:41:57;98490.94;;;19.76;100.00
72423;BME280;71399;54.146;38.734;2023-08-20T03:44:23;98488.91;;;19.82;100.00
72423;BME280;71399;54.146;38.734;2023-08-20T03:46:49;98492.34;;;19.91;100.00
72423;BME280;71399;54.146;38.734;2023-08-20T03:49:16;98482.75;;;19.98;100.00
72423;BME280;71399;54.146;38.734;2023-08-20T03:51:42;98491.22;;;20.09;100.00
72423;BME280;71399;54.146;38.734;2023-08-20T03:54:08;98486.34;;;20.20;100.00
72423;BME280;71399;54.146;38.734;2023-08-20T03:56:35;98474.53;;;20.30;100.00
72423;BME280;71399;54.146;38.734;2023-08-20T03:59:02;98464.41;;;20.44;100.00
72423;BME280;71399;54.146;38.734;2023-08-20T04:01:29;98440.47;;;20.57;100.00
72423;BME280;71399;54.146;38.734;2023-08-20T04:03:55;98417.25;;;20.69;100.00
72423;BME280;71399;54.146;38.734;2023-08-20T04:06:21;98388.25;;;20.80;100.00
72423;BME280;71399;54.146;38.734;2023-08-20T04:08:48;98333.19;;;20.91;100.00
72423;BME280;71399;54.146;38.734;2023-08-20T04:11:14;98296.09;;;21.02;100.00
72423;BME280;71399;54.146;38.734;2023-08-20T04:13:40;98280.06;;;21.15;100.00
72423;BME280;71399;54.146;38.734;2023-08-20T04:16:09;98267.28;;;21.33;100.00
72423;BME280;71399;54.146;38.734;2023-08-20T04:18:36;98252.94;;;21.50;100.00
72423;BME280;71399;54.146;38.734;2023-08-20T04:21:02;98254.44;;;21.59;100.00
72423;BME280;71399;54.146;38.734;2023-08-20T04:23:28;98250.09;;;21.67;100.00
72423;BME280;71399;54.146;38.734;2023-08-20T04:25:54;98237.69;;;21.75;100.00
72423;BME280;71399;54.146;38.734;2023-08-20T04:28:20;98243.75;;;21.84;100.00
72423;BME280;71399;54.146;38.734;2023-08-20T04:30:46;98240.72;;;21.98;100.00
72423;BME280;71399;54.146;38.734;2023-08-20T04:33:12;98246.88;;;22.11;100.00
72423;BME280;71399;54.146;38.734;2023-08-20T04:35:42;98239.25;;;22.25;100.00
72423;BME280;71399;54.146;38.734;2023-08-20T04:38:08;98231.91;;;22.34;100.00
72423;BME280;71399;54.146;38.734;2023-08-20T04:40:34;98232.69;;;22.47;100.00
72423;BME280;71399;54.146;38.734;2023-08-20T04:43:00;98232.63;;;22.60;100.00
72423;BME280;71399;54.146;38.734;2023-08-20T04:45:28;98224.53;;;22.72;100.00
72423;BME280;71399;54.146;38.734;2023-08-20T04:47:54;98242.22;;;22.73;100.00
72423;BME280;71399;54.146;38.734;2023-08-20T04:50:20;98230.81;;;22.76;100.00
72423;BME280;71399;54.146;38.734;2023-08-20T04:52:46;98245.00;;;22.76;100.00
72423;BME280;71399;54.146;38.734;2023-08-20T04:55:14;98255.31;;;22.74;100.00
72423;BME280;71399;54.146;38.734;2023-08-20T04:57:42;98233.16;;;22.78;100.00
72423;BME280;71399;54.146;38.734;2023-08-20T05:00:08;98249.38;;;22.81;100.00
72423;BME280;71399;54.146;38.734;2023-08-20T05:02:52;98236.59;;;22.90;100.00
72423;BME280;71399;54.146;38.734;2023-08-20T05:05:20;98249.44;;;22.97;100.00
72423;BME280;71399;54.146;38.734;2023-08-20T05:07:48;98251.88;;;23.02;100.00
72423;BME280;71399;54.146;38.734;2023-08-20T05:10:14;98260.34;;;23.17;100.00
72423;BME280;71399;54.146;38.734;2023-08-20T05:12:40;98252.69;;;23.31;100.00
72423;BME280;71399;54.146;38.734;2023-08-20T05:15:07;98240.44;;;23.34;100.00
72423;BME280;71399;54.146;38.734;2023-08-20T05:17:33;98242.78;;;23.35;100.00
72423;BME280;71399;54.146;38.734;2023-08-20T05:20:01;98236.47;;;23.43;100.00
72423;BME280;71399;54.146;38.734;2023-08-20T05:22:29;98246.13;;;23.60;100.00
72423;BME280;71399;54.146;38.734;2023-08-20T05:24:54;98294.66;;;23.80;100.00
72423;BME280;71399;54.146;38.734;2023-08-20T05:27:20;98336.69;;;23.84;100.00
72423;BME280;71399;54.146;38.734;2023-08-20T05:29:49;98326.94;;;23.80;100.00
72423;BME280;71399;54.146;38.734;2023-08-20T05:32:17;98328.50;;;23.81;100.00
72423;BME280;71399;54.146;38.734;2023-08-20T05:34:43;98341.81;;;23.90;100.00
72423;BME280;71399;54.146;38.734;2023-08-20T05:37:09;98339.59;;;24.08;100.00
72423;BME280;71399;54.146;38.734;2023-08-20T05:39:36;98389.25;;;24.26;100.00
72423;BME280;71399;54.146;38.734;2023-08-20T05:42:03;98409.84;;;24.50;100.00
72423;BME280;71399;54.146;38.734;2023-08-20T05:44:30;98455.75;;;24.70;100.00
72423;BME280;71399;54.146;38.734;2023-08-20T05:46:57;98475.81;;;24.72;100.00
72423;BME280;71399;54.146;38.734;2023-08-20T05:49:24;98520.50;;;24.73;100.00
72423;BME280;71399;54.146;38.734;2023-08-20T05:51:51;98592.06;;;24.71;100.00
72423;BME280;71399;54.146;38.734;2023-08-20T05:54:18;98628.28;;;24.73;100.00
72423;BME280;71399;54.146;38.734;2023-08-20T05:56:44;98680.59;;;24.72;100.00
72423;BME280;71399;54.146;38.734;2023-08-20T05:59:10;98732.63;;;24.60;100.00
72423;BME280;71399;54.146;38.734;2023-08-20T06:01:36;98731.28;;;24.42;100.00
72423;BME280;71399;54.146;38.734;2023-08-20T06:04:02;98646.84;;;24.22;100.00
72423;BME280;71399;54.146;38.734;2023-08-20T06:06:28;98634.88;;;24.07;100.00
72423;BME280;71399;54.146;38.734;2023-08-20T06:08:55;98580.66;;;23.93;100.00
72423;BME280;71399;54.146;38.734;2023-08-20T06:11:21;98511.00;;;23.79;100.00
72423;BME280;71399;54.146;38.734;2023-08-20T06:13:47;98469.69;;;23.59;100.00
72423;BME280;71399;54.146;38.734;2023-08-20T06:16:13;98331.22;;;23.53;100.00
72423;BME280;71399;54.146;38.734;2023-08-20T06:18:38;98307.28;;;23.47;100.00
72423;BME280;71399;54.146;38.734;2023-08-20T06:21:05;98425.38;;;23.40;100.00
72423;BME280;71399;54.146;38.734;2023-08-20T06:23:31;98390.66;;;23.35;100.00
72423;BME280;71399;54.146;38.734;2023-08-20T06:25:57;98348.78;;;23.34;100.00
72423;BME280;71399;54.146;38.734;2023-08-20T06:28:23;98368.63;;;23.29;100.00
72423;BME280;71399;54.146;38.734;2023-08-20T06:30:48;98325.75;;;23.21;100.00
72423;BME280;71399;54.146;38.734;2023-08-20T06:33:14;98302.50;;;23.12;100.00
72423;BME280;71399;54.146;38.734;2023-08-20T06:35:40;98311.13;;;22.93;100.00
72423;BME280;71399;54.146;38.734;2023-08-20T06:38:08;98244.34;;;22.80;100.00
72423;BME280;71399;54.146;38.734;2023-08-20T06:40:34;98162.22;;;22.66;100.00
72423;BME280;71399;54.146;38.734;2023-08-20T06:43:00;98118.09;;;22.51;100.00
72423;BME280;71399;54.146;38.734;2023-08-20T06:45:25;98067.50;;;22.37;100.00
72423;BME280;71399;54.146;38.734;2023-08-20T06:47:51;98063.69;;;22.26;100.00
72423;BME280;71399;54.146;38.734;2023-08-20T06:50:17;98072.47;;;22.11;100.00
72423;BME280;71399;54.146;38.734;2023-08-20T06:52:44;98072.50;;;21.98;100.00
72423;BME280;71399;54.146;38.734;2023-08-20T06:55:10;98072.09;;;21.84;100.00
72423;BME280;71399;54.146;38.734;2023-08-20T06:57:36;98096.03;;;21.77;100.00
72423;BME280;71399;54.146;38.734;2023-08-20T07:00:02;98141.72;;;21.68;100.00
72423;BME280;71399;54.146;38.734;2023-08-20T07:02:32;98173.88;;;21.56;100.00
72423;BME280;71399;54.146;38.734;2023-08-20T07:04:57;98147.97;;;21.48;100.00
72423;BME280;71399;54.146;38.734;2023-08-20T07:07:24;98172.59;;;21.41;100.00
72423;BME280;71399;54.146;38.734;2023-08-20T07:09:50;98220.28;;;21.35;100.00
72423;BME280;71399;54.146;38.734;2023-08-20T07:12:16;98256.78;;;21.27;100.00
72423;BME280;71399;54.146;38.734;2023-08-20T07:14:42;98277.75;;;21.25;100.00
72423;BME280;71399;54.146;38.734;2023-08-20T07:17:08;98278.41;;;21.22;100.00
72423;BME280;71399;54.146;38.734;2023-08-20T07:19:34;98295.94;;;21.20;100.00
72423;BME280;71399;54.146;38.734;2023-08-20T07:22:00;98299.28;;;21.17;100.00
72423;BME280;71399;54.146;38.734;2023-08-20T07:24:26;98286.88;;;21.12;100.00
72423;BME280;71399;54.146;38.734;2023-08-20T07:26:54;98303.59;;;21.09;100.00
72423;BME280;71399;54.146;38.734;2023-08-20T07:29:26;98302.34;;;21.06;100.00
72423;BME280;71399;54.146;38.734;2023-08-20T07:31:55;98312.59;;;21.04;100.00
72423;BME280;71399;54.146;38.734;2023-08-20T07:34:21;98301.75;;;21.01;100.00
72423;BME280;71399;54.146;38.734;2023-08-20T07:36:48;98307.56;;;21.03;100.00
72423;BME280;71399;54.146;38.734;2023-08-20T07:39:14;98284.06;;;21.08;100.00
72423;BME280;71399;54.146;38.734;2023-08-20T07:41:41;98308.44;;;21.16;100.00
72423;BME280;71399;54.146;38.734;2023-08-20T07:44:08;98293.41;;;21.23;100.00
72423;BME280;71399;54.146;38.734;2023-08-20T07:46:34;98282.59;;;21.32;100.00
72423;BME280;71399;54.146;38.734;2023-08-20T07:49:00;98236.81;;;21.37;100.00
72423;BME280;71399;54.146;38.734;2023-08-20T07:51:26;98221.97;;;21.40;100.00
72423;BME280;71399;54.146;38.734;2023-08-20T07:53:52;98252.25;;;21.40;100.00
72423;BME280;71399;54.146;38.734;2023-08-20T07:56:18;98273.81;;;21.44;100.00
72423;BME280;71399;54.146;38.734;2023-08-20T07:58:44;98276.63;;;21.48;100.00
72423;BME280;71399;54.146;38.734;2023-08-20T08:01:10;98261.38;;;21.60;100.00
72423;BME280;71399;54.146;38.734;2023-08-20T08:03:36;98229.41;;;21.80;100.00
72423;BME280;71399;54.146;38.734;2023-08-20T08:06:02;98202.28;;;22.06;100.00
72423;BME280;71399;54.146;38.734;2023-08-20T08:08:28;98167.25;;;22.27;100.00
72423;BME280;71399;54.146;38.734;2023-08-20T08:10:54;98162.19;;;22.50;100.00
72423;BME280;71399;54.146;38.734;2023-08-20T08:13:20;98150.47;;;22.71;100.00
72423;BME280;71399;54.146;38.734;2023-08-20T08:15:47;98161.25;;;22.87;100.00
72423;BME280;71399;54.146;38.734;2023-08-20T08:18:14;98138.31;;;23.05;100.00
72423;BME280;71399;54.146;38.734;2023-08-20T08:20:40;98188.66;;;23.21;100.00
72423;BME280;71399;54.146;38.734;2023-08-20T08:23:06;98226.66;;;23.35;100.00
72423;BME280;71399;54.146;38.734;2023-08-20T08:25:32;98218.69;;;23.55;100.00
72423;BME280;71399;54.146;38.734;2023-08-20T08:27:58;98289.09;;;23.73;100.00
72423;BME280;71399;54.146;38.734;2023-08-20T08:30:24;98265.78;;;23.93;100.00
72423;BME280;71399;54.146;38.734;2023-08-20T08:32:50;98247.00;;;24.12;100.00
72423;BME280;71399;54.146;38.734;2023-08-20T08:35:16;98332.09;;;24.33;100.00
72423;BME280;71399;54.146;38.734;2023-08-20T08:37:42;98350.91;;;24.49;100.00
72423;BME280;71399;54.146;38.734;2023-08-20T08:40:08;98364.00;;;24.63;100.00
72423;BME280;71399;54.146;38.734;2023-08-20T08:42:34;98330.06;;;24.77;100.00
72423;BME280;71399;54.146;38.734;2023-08-20T08:45:00;98316.53;;;24.93;100.00
72423;BME280;71399;54.146;38.734;2023-08-20T08:47:26;98338.88;;;25.13;100.00
72423;BME280;71399;54.146;38.734;2023-08-20T08:49:56;98518.56;;;25.22;100.00
72423;BME280;71399;54.146;38.734;2023-08-20T08:52:23;98465.41;;;25.38;100.00
72423;BME280;71399;54.146;38.734;2023-08-20T08:54:49;98550.97;;;25.57;100.00
72423;BME280;71399;54.146;38.734;2023-08-20T08:57:15;98621.88;;;25.74;100.00
72423;BME280;71399;54.146;38.734;2023-08-20T08:59:43;98643.28;;;25.82;100.00
72423;BME280;71399;54.146;38.734;2023-08-20T09:02:10;98530.91;;;25.94;100.00
72423;BME280;71399;54.146;38.734;2023-08-20T09:04:39;98540.19;;;26.12;100.00
72423;BME280;71399;54.146;38.734;2023-08-20T09:07:12;98693.75;;;26.14;100.00
72423;BME280;71399;54.146;38.734;2023-08-20T09:09:43;98623.84;;;26.28;100.00
72423;BME280;71399;54.146;38.734;2023-08-20T09:12:16;98553.09;;;26.42;100.00
72423;BME280;71399;54.146;38.734;2023-08-20T09:14:46;98743.94;;;26.50;100.00
72423;BME280;71399;54.146;38.734;2023-08-20T09:17:13;98643.13;;;26.66;100.00
72423;BME280;71399;54.146;38.734;2023-08-20T09:19:39;98817.69;;;26.67;100.00
72423;BME280;71399;54.146;38.734;2023-08-20T09:22:07;98707.13;;;26.61;100.00
72423;BME280;71399;54.146;38.734;2023-08-20T09:24:38;98821.31;;;26.74;100.00
72423;BME280;71399;54.146;38.734;2023-08-20T09:27:04;98821.91;;;26.84;100.00
72423;BME280;71399;54.146;38.734;2023-08-20T09:29:31;99060.97;;;26.83;100.00
72423;BME280;71399;54.146;38.734;2023-08-20T09:32:01;99060.97;;;26.83;100.00
72423;BME280;71399;54.146;38.734;2023-08-20T09:34:37;98955.94;;;26.85;100.00
72423;BME280;71399;54.146;38.734;2023-08-20T09:37:10;98939.34;;;27.02;100.00
72423;BME280;71399;54.146;38.734;2023-08-20T09:39:36;98773.84;;;27.16;100.00
72423;BME280;71399;54.146;38.734;2023-08-20T09:42:03;99197.38;;;27.13;100.00
72423;BME280;71399;54.146;38.734;2023-08-20T09:44:32;99030.25;;;27.07;100.00
72423;BME280;71399;54.146;38.734;2023-08-20T09:46:59;99152.78;;;27.23;100.00
72423;BME280;71399;54.146;38.734;2023-08-20T09:49:25;99023.50;;;27.32;100.00
72423;BME280;71399;54.146;38.734;2023-08-20T09:51:54;99037.72;;;27.45;100.00
72423;BME280;71399;54.146;38.734;2023-08-20T09:54:28;99070.78;;;27.54;100.00
72423;BME280;71399;54.146;38.734;2023-08-20T09:57:00;99010.88;;;27.56;100.00
72423;BME280;71399;54.146;38.734;2023-08-20T09:59:27;99003.34;;;27.65;100.00
72423;BME280;71399;54.146;38.734;2023-08-20T10:01:54;99185.16;;;27.67;100.00
72423;BME280;71399;54.146;38.734;2023-08-20T10:04:22;99091.53;;;27.66;100.00
72423;BME280;71399;54.146;38.734;2023-08-20T10:06:49;99045.78;;;27.61;100.00
72423;BME280;71399;54.146;38.734;2023-08-20T10:09:15;99065.25;;;27.67;100.00
72423;BME280;71399;54.146;38.734;2023-08-20T10:11:43;99139.63;;;27.73;100.00
72423;BME280;71399;54.146;38.734;2023-08-20T10:14:09;99224.31;;;27.70;100.00
72423;BME280;71399;54.146;38.734;2023-08-20T10:16:35;99199.31;;;27.77;100.00
72423;BME280;71399;54.146;38.734;2023-08-20T10:19:02;99182.88;;;27.85;100.00
72423;BME280;71399;54.146;38.734;2023-08-20T10:21:28;99182.69;;;27.94;100.00
72423;BME280;71399;54.146;38.734;2023-08-20T10:23:54;99169.66;;;28.00;100.00
72423;BME280;71399;54.146;38.734;2023-08-20T10:26:20;99149.72;;;28.08;100.00
72423;BME280;71399;54.146;38.734;2023-08-20T10:28:50;99152.88;;;28.10;100.00
72423;BME280;71399;54.146;38.734;2023-08-20T10:31:16;99173.09;;;28.16;100.00
72423;BME280;71399;54.146;38.734;2023-08-20T10:33:49;99179.81;;;28.22;100.00
72423;BME280;71399;54.146;38.734;2023-08-20T10:36:20;99178.41;;;28.28;100.00
72423;BME280;71399;54.146;38.734;2023-08-20T10:38:53;99208.28;;;28.32;100.00
72423;BME280;71399;54.146;38.734;2023-08-20T10:41:24;99196.47;;;28.40;100.00
72423;BME280;71399;54.146;38.734;2023-08-20T10:43:50;99191.41;;;28.39;100.00
72423;BME280;71399;54.146;38.734;2023-08-20T10:46:22;99195.16;;;28.34;100.00
72423;BME280;71399;54.146;38.734;2023-08-20T10:48:50;99192.09;;;28.36;100.00
72423;BME280;71399;54.146;38.734;2023-08-20T10:51:19;99189.75;;;28.34;100.00
72423;BME280;71399;54.146;38.734;2023-08-20T10:56:44;99173.78;;;28.29;100.00
72423;BME280;71399;54.146;38.734;2023-08-20T10:59:23;99156.56;;;28.41;100.00
72423;BME280;71399;54.146;38.734;2023-08-20T11:01:52;99163.28;;;28.47;100.00
72423;BME280;71399;54.146;38.734;2023-08-20T11:04:19;99136.00;;;28.56;100.00
72423;BME280;71399;54.146;38.734;2023-08-20T11:06:46;99176.31;;;28.57;100.00
72423;BME280;71399;54.146;38.734;2023-08-20T11:09:12;99162.19;;;28.52;100.00
72423;BME280;71399;54.146;38.734;2023-08-20T11:11:42;99151.44;;;28.55;100.00
72423;BME280;71399;54.146;38.734;2023-08-20T11:14:12;99137.97;;;28.59;100.00
72423;BME280;71399;54.146;38.734;2023-08-20T11:16:39;99118.66;;;28.60;100.00
72423;BME280;71399;54.146;38.734;2023-08-20T11:19:06;99139.19;;;28.61;100.00
72423;BME280;71399;54.146;38.734;2023-08-20T11:21:34;99118.78;;;28.68;100.00
72423;BME280;71399;54.146;38.734;2023-08-20T11:24:01;99095.19;;;28.72;100.00
72423;BME280;71399;54.146;38.734;2023-08-20T11:26:27;99119.41;;;28.80;100.00
72423;BME280;71399;54.146;38.734;2023-08-20T11:28:53;99124.88;;;28.84;100.00
72423;BME280;71399;54.146;38.734;2023-08-20T11:31:19;99092.75;;;28.86;100.00
72423;BME280;71399;54.146;38.734;2023-08-20T11:33:45;99084.31;;;28.91;100.00
72423;BME280;71399;54.146;38.734;2023-08-20T11:36:15;99082.50;;;28.99;100.00
72423;BME280;71399;54.146;38.734;2023-08-20T11:38:41;99084.13;;;29.04;100.00
72423;BME280;71399;54.146;38.734;2023-08-20T11:41:07;99045.53;;;29.14;100.00
72423;BME280;71399;54.146;38.734;2023-08-20T11:43:33;99070.13;;;29.25;100.00
72423;BME280;71399;54.146;38.734;2023-08-20T11:45:59;99076.03;;;29.30;100.00
72423;BME280;71399;54.146;38.734;2023-08-20T11:48:26;99095.88;;;29.34;100.00
72423;BME280;71399;54.146;38.734;2023-08-20T11:50:51;99086.22;;;29.37;100.00
72423;BME280;71399;54.146;38.734;2023-08-20T11:53:21;99080.53;;;29.46;100.00
72423;BME280;71399;54.146;38.734;2023-08-20T11:55:49;99072.78;;;29.48;100.00
72423;BME280;71399;54.146;38.734;2023-08-20T11:58:15;99080.97;;;29.51;100.00
72423;BME280;71399;54.146;38.734;2023-08-20T12:00:41;99072.06;;;29.51;100.00
72423;BME280;71399;54.146;38.734;2023-08-20T12:03:08;99065.38;;;29.45;100.00
72423;BME280;71399;54.146;38.734;2023-08-20T12:05:34;99070.72;;;29.37;100.00
72423;BME280;71399;54.146;38.734;2023-08-20T12:08:01;99052.34;;;29.27;100.00
72423;BME280;71399;54.146;38.734;2023-08-20T12:10:28;99059.59;;;29.19;100.00
72423;BME280;71399;54.146;38.734;2023-08-20T12:12:55;99041.22;;;29.13;100.00
72423;BME280;71399;54.146;38.734;2023-08-20T12:15:21;99022.59;;;29.11;100.00
72423;BME280;71399;54.146;38.734;2023-08-20T12:20:26;99006.28;;;29.08;100.00
72423;BME280;71399;54.146;38.734;2023-08-20T12:22:53;99023.59;;;28.99;100.00
72423;BME280;71399;54.146;38.734;2023-08-20T12:25:19;99013.06;;;28.94;100.00
72423;BME280;71399;54.146;38.734;2023-08-20T12:27:46;99002.06;;;28.83;100.00
72423;BME280;71399;54.146;38.734;2023-08-20T12:30:12;98967.28;;;28.66;100.00
72423;BME280;71399;54.146;38.734;2023-08-20T12:32:38;98964.19;;;28.44;100.00
72423;BME280;71399;54.146;38.734;2023-08-20T12:35:04;98940.72;;;28.29;100.00
72423;BME280;71399;54.146;38.734;2023-08-20T12:37:31;98918.56;;;28.23;100.00
72423;BME280;71399;54.146;38.734;2023-08-20T12:39:56;98911.16;;;28.20;100.00
72423;BME280;71399;54.146;38.734;2023-08-20T12:42:22;98906.88;;;28.19;100.00
72423;BME280;71399;54.146;38.734;2023-08-20T12:44:48;98914.94;;;28.16;100.00
72423;BME280;71399;54.146;38.734;2023-08-20T12:47:14;98926.50;;;28.13;100.00
72423;BME280;71399;54.146;38.734;2023-08-20T12:49:40;98899.75;;;28.11;100.00
72423;BME280;71399;54.146;38.734;2023-08-20T12:52:06;98895.72;;;28.01;100.00
72423;BME280;71399;54.146;38.734;2023-08-20T12:54:32;98853.09;;;27.98;100.00